Time;durP1;ratioP1;P1;durP2;ratioP2;P2;SDS_P1;SDS_P2;PMS_P1;PMS_P2;Temp;Humidity;BMP_temperature;BMP_pressure;BME280_temperature;BME280_humidity;BME280_pressure;Samples;Min_cycle;Max_cycle;Signal;HPM_P1;HPM_P2
2021/06/30 00:00:24;;;;;;;4.40;4.00;;;15.90;99.90;;;;;;4904400;29;20469;-59
2021/06/30 00:02:53;;;;;;;4.80;3.90;;;15.90;99.90;;;;;;4900807;29;20795;-59
2021/06/30 00:05:21;;;;;;;4.53;4.13;;;16.00;99.90;;;;;;4904326;29;20475;-59
2021/06/30 00:07:48;;;;;;;5.00;4.50;;;16.00;99.90;;;;;;4918227;29;20481;-59
2021/06/30 00:10:17;;;;;;;4.13;3.73;;;16.00;99.90;;;;;;4922633;29;20508;-59
2021/06/30 00:12:44;;;;;;;4.13;3.73;;;16.00;99.90;;;;;;4921908;29;20489;-59
2021/06/30 00:18:21;;;;;;;3.70;3.40;;;15.90;99.90;;;;;;4918963;29;20465;-59
2021/06/30 00:21:02;;;;;;;3.80;3.50;;;15.80;99.90;;;;;;4915974;29;20479;-59
2021/06/30 00:23:45;;;;;;;4.53;3.90;;;15.70;99.90;;;;;;4916927;29;20443;-59
2021/06/30 00:26:22;;;;;;;3.47;3.17;;;15.70;99.90;;;;;;4921446;29;20504;-59
2021/06/30 00:29:09;;;;;;;3.80;3.50;;;15.70;99.90;;;;;;4922421;29;20552;-59
2021/06/30 00:32:26;;;;;;;3.73;3.43;;;15.70;99.90;;;;;;4922750;29;20472;-59
2021/06/30 00:35:13;;;;;;;3.60;3.30;;;15.70;99.90;;;;;;4920640;29;20481;-59
2021/06/30 00:37:52;;;;;;;3.93;3.60;;;15.70;99.90;;;;;;4921995;29;20472;-59
2021/06/30 00:40:31;;;;;;;4.03;3.63;;;15.70;99.90;;;;;;4922419;29;20468;-59
2021/06/30 00:43:18;;;;;;;4.30;4.00;;;15.60;99.90;;;;;;4905277;29;20472;-59
2021/06/30 00:45:48;;;;;;;4.73;4.33;;;15.70;99.90;;;;;;4905485;29;20471;-59
2021/06/30 00:48:15;;;;;;;5.07;4.67;;;15.70;99.90;;;;;;4921466;29;20511;-59
2021/06/30 00:50:44;;;;;;;5.60;5.10;;;15.60;99.90;;;;;;4921423;29;20477;-59
2021/06/30 00:53:12;;;;;;;6.27;5.67;;;15.60;99.90;;;;;;4905157;29;20506;-59
2021/06/30 00:55:41;;;;;;;6.10;5.50;;;15.60;99.90;;;;;;4921601;29;20472;-59
2021/06/30 00:58:12;;;;;;;6.53;5.90;;;15.70;99.90;;;;;;4921917;29;20475;-59
2021/06/30 01:00:39;;;;;;;6.33;5.83;;;15.60;99.90;;;;;;4922158;29;20484;-59
2021/06/30 01:03:06;;;;;;;6.97;5.80;;;15.70;99.90;;;;;;4922251;29;20472;-59
2021/06/30 01:05:34;;;;;;;6.50;5.90;;;15.70;99.90;;;;;;4915374;29;20473;-60
2021/06/30 01:08:07;;;;;;;6.37;5.77;;;15.80;99.90;;;;;;4918004;29;20508;-60
2021/06/30 01:10:35;;;;;;;8.57;7.23;;;15.70;99.90;;;;;;4920557;29;20468;-60
2021/06/30 01:13:07;;;;;;;7.10;6.37;;;15.70;99.90;;;;;;4915282;29;20959;-60
2021/06/30 01:15:47;;;;;;;7.47;6.77;;;15.70;99.90;;;;;;4915937;29;20452;-60
2021/06/30 01:18:15;;;;;;;7.60;7.00;;;15.70;99.90;;;;;;4921492;29;20566;-60
2021/06/30 01:20:42;;;;;;;7.33;6.63;;;15.70;99.90;;;;;;4904393;29;20468;-60
2021/06/30 01:23:11;;;;;;;8.67;7.87;;;15.70;99.90;;;;;;4921511;29;20478;-60
2021/06/30 01:25:39;;;;;;;8.13;7.33;;;15.80;99.90;;;;;;4920594;29;20476;-60
2021/06/30 01:28:06;;;;;;;7.97;6.93;;;15.80;99.90;;;;;;4920775;29;20508;-60
2021/06/30 01:30:34;;;;;;;7.63;6.93;;;15.70;99.90;;;;;;4920872;29;20484;-60
2021/06/30 01:33:01;;;;;;;7.60;6.90;;;15.60;99.90;;;;;;4921589;29;20466;-60
2021/06/30 01:35:29;;;;;;;8.00;7.30;;;15.60;99.90;;;;;;4921763;29;20478;-60
2021/06/30 01:38:00;;;;;;;7.87;7.03;;;15.60;99.90;;;;;;4918383;29;20527;-60
2021/06/30 01:40:29;;;;;;;9.47;7.93;;;15.60;99.90;;;;;;4920626;29;20472;-60
2021/06/30 01:42:58;;;;;;;8.80;7.90;;;15.50;99.90;;;;;;4921674;29;20754;-60
2021/06/30 01:45:26;;;;;;;8.00;7.30;;;15.50;99.90;;;;;;4921217;29;20835;-60
2021/06/30 01:47:54;;;;;;;8.10;7.37;;;15.50;99.90;;;;;;4920732;29;20496;-60
2021/06/30 01:50:23;;;;;;;8.63;7.63;;;15.50;99.90;;;;;;4921060;29;20877;-60
2021/06/30 01:52:51;;;;;;;9.00;8.30;;;15.40;99.90;;;;;;4921582;29;20468;-60
2021/06/30 01:55:21;;;;;;;8.40;7.60;;;15.50;99.90;;;;;;4921327;29;20458;-60
2021/06/30 01:57:52;;;;;;;8.13;7.40;;;15.50;99.90;;;;;;4920805;29;20480;-60
2021/06/30 02:00:22;;;;;;;7.83;6.93;;;15.50;99.90;;;;;;4920251;29;20474;-60
2021/06/30 02:02:50;;;;;;;8.10;7.00;;;15.40;99.90;;;;;;4917385;29;20485;-60
2021/06/30 02:05:20;;;;;;;7.70;7.00;;;15.50;99.90;;;;;;4917185;29;20528;-60
2021/06/30 02:07:49;;;;;;;7.30;6.60;;;15.50;99.90;;;;;;4920965;29;20539;-59
2021/06/30 02:10:17;;;;;;;7.80;7.17;;;15.40;99.90;;;;;;4920881;29;20515;-60
2021/06/30 02:12:45;;;;;;;6.30;5.80;;;15.40;99.90;;;;;;4921317;29;20532;-60
2021/06/30 02:15:16;;;;;;;6.93;6.33;;;15.40;99.90;;;;;;4921352;29;20454;-60
2021/06/30 02:17:44;;;;;;;7.20;6.23;;;15.40;99.90;;;;;;4920419;29;20460;-60
2021/06/30 02:20:13;;;;;;;8.73;7.93;;;15.50;99.90;;;;;;4903781;29;20570;-60
2021/06/30 02:22:41;;;;;;;8.30;7.60;;;15.50;99.90;;;;;;4920956;29;20558;-60
2021/06/30 02:25:10;;;;;;;7.37;6.77;;;15.50;99.90;;;;;;4920596;29;20484;-60
2021/06/30 02:27:38;;;;;;;7.60;6.90;;;15.50;99.90;;;;;;4920318;29;20498;-60
2021/06/30 02:30:08;;;;;;;8.17;7.40;;;15.60;99.90;;;;;;4920829;29;20482;-60
2021/06/30 02:32:37;;;;;;;7.60;6.90;;;15.60;99.90;;;;;;4920167;29;20473;-60
2021/06/30 02:35:06;;;;;;;7.93;7.10;;;15.50;99.90;;;;;;4920768;29;20475;-60
2021/06/30 02:37:36;;;;;;;8.27;7.47;;;15.50;99.90;;;;;;4920313;29;20627;-60
2021/06/30 02:40:05;;;;;;;8.00;7.30;;;15.50;99.90;;;;;;4920638;29;20755;-60
2021/06/30 02:42:32;;;;;;;9.00;8.13;;;15.50;99.90;;;;;;4917820;29;20479;-60
2021/06/30 02:45:00;;;;;;;9.20;8.40;;;15.50;99.90;;;;;;4920675;29;20575;-60
2021/06/30 02:47:27;;;;;;;10.10;9.20;;;15.50;99.90;;;;;;4920174;29;20920;-60
2021/06/30 02:49:55;;;;;;;9.00;8.13;;;15.40;99.90;;;;;;4903539;29;20567;-60
2021/06/30 02:52:23;;;;;;;10.97;10.03;;;15.40;99.90;;;;;;4903287;29;20533;-60
2021/06/30 02:54:50;;;;;;;10.40;9.50;;;15.40;99.90;;;;;;4921334;29;20447;-60
2021/06/30 02:57:17;;;;;;;9.87;9.07;;;15.40;99.90;;;;;;4920266;29;20468;-60
2021/06/30 02:59:44;;;;;;;10.27;9.37;;;15.40;99.90;;;;;;4920639;29;20477;-60
2021/06/30 03:02:12;;;;;;;10.27;9.47;;;15.40;99.90;;;;;;4920036;29;20762;-60
2021/06/30 03:04:40;;;;;;;10.33;9.50;;;15.50;99.90;;;;;;4911884;29;20468;-60
2021/06/30 03:07:11;;;;;;;12.00;9.87;;;15.40;99.90;;;;;;4920017;29;20468;-60
2021/06/30 03:09:38;;;;;;;10.87;9.90;;;15.40;99.90;;;;;;4920756;29;20514;-60
2021/06/30 03:12:06;;;;;;;12.33;11.10;;;15.40;99.90;;;;;;4923621;29;20480;-60
2021/06/30 03:14:33;;;;;;;12.20;11.17;;;15.40;99.90;;;;;;4921131;29;20586;-60
2021/06/30 03:17:01;;;;;;;11.97;10.90;;;15.40;99.90;;;;;;4924337;29;20462;-60
2021/06/30 03:19:28;;;;;;;12.40;11.20;;;15.40;99.90;;;;;;4924264;29;20654;-60
2021/06/30 03:21:56;;;;;;;12.53;11.43;;;15.40;99.90;;;;;;4922444;29;20477;-60
2021/06/30 03:24:25;;;;;;;14.70;13.43;;;15.40;99.90;;;;;;4923463;29;20468;-60
2021/06/30 03:26:55;;;;;;;13.27;12.00;;;15.40;99.90;;;;;;4923628;29;20468;-60
2021/06/30 03:29:22;;;;;;;13.77;12.47;;;15.30;99.90;;;;;;4924279;29;20500;-60
2021/06/30 03:31:50;;;;;;;15.77;13.50;;;15.40;99.90;;;;;;4906585;29;20468;-60
2021/06/30 03:34:18;;;;;;;13.90;12.70;;;15.40;99.90;;;;;;4923438;29;20743;-60
2021/06/30 03:36:46;;;;;;;13.70;12.50;;;15.30;99.90;;;;;;4906481;29;20446;-60
2021/06/30 03:39:15;;;;;;;15.60;14.20;;;15.30;99.90;;;;;;4922982;29;20733;-60
2021/06/30 03:41:44;;;;;;;16.17;14.57;;;15.20;99.90;;;;;;4923362;29;20468;-60
2021/06/30 03:44:11;;;;;;;14.37;13.07;;;15.20;99.90;;;;;;4923138;29;20473;-60
2021/06/30 03:46:39;;;;;;;16.17;14.57;;;15.30;99.90;;;;;;4923100;29;20567;-59
2021/06/30 03:49:07;;;;;;;15.47;13.90;;;15.30;99.90;;;;;;4922567;29;20599;-60
2021/06/30 03:54:15;;;;;;;18.47;16.53;;;15.20;99.90;;;;;;4923429;29;20468;-60
2021/06/30 03:56:44;;;;;;;18.50;16.60;;;15.20;99.90;;;;;;4922915;29;20483;-59
2021/06/30 03:59:12;;;;;;;16.80;15.10;;;15.20;99.90;;;;;;4923577;29;20504;-60
2021/06/30 04:01:55;;;;;;;18.80;17.00;;;15.20;99.90;;;;;;4923443;29;20472;-60
2021/06/30 04:04:24;;;;;;;19.97;17.97;;;15.30;99.90;;;;;;4914566;29;20787;-60
2021/06/30 04:06:52;;;;;;;19.60;17.80;;;15.30;99.90;;;;;;4921624;29;20476;-58
2021/06/30 04:09:23;;;;;;;20.03;18.07;;;15.20;99.90;;;;;;4922296;29;20496;-59
2021/06/30 04:11:54;;;;;;;21.80;19.80;;;15.20;99.90;;;;;;4922938;29;20476;-59
2021/06/30 04:14:21;;;;;;;20.83;18.83;;;15.20;99.90;;;;;;4922233;29;20575;-59
2021/06/30 04:16:52;;;;;;;19.57;17.67;;;15.20;99.90;;;;;;4922948;29;20472;-59
2021/06/30 04:19:21;;;;;;;16.27;14.67;;;15.20;99.90;;;;;;4916140;29;20472;-59
2021/06/30 04:21:48;;;;;;;16.50;14.90;;;15.10;99.90;;;;;;4922719;29;20468;-59
2021/06/30 04:24:18;;;;;;;15.47;13.90;;;15.20;99.90;;;;;;4922909;29;20960;-59
2021/06/30 04:26:50;;;;;;;14.07;12.63;;;15.20;99.90;;;;;;4922698;29;20559;-59
2021/06/30 04:29:22;;;;;;;12.97;11.77;;;15.20;99.90;;;;;;4922083;29;20497;-59
2021/06/30 04:31:52;;;;;;;12.67;11.47;;;15.20;99.90;;;;;;4916965;29;20468;-59
2021/06/30 04:34:21;;;;;;;13.30;11.90;;;15.20;99.90;;;;;;4905570;29;20500;-59
2021/06/30 04:36:50;;;;;;;11.37;10.27;;;15.30;99.90;;;;;;4922193;29;20567;-59
2021/06/30 04:39:22;;;;;;;11.97;10.90;;;15.30;99.90;;;;;;4921216;29;20440;-59
2021/06/30 04:41:54;;;;;;;11.10;10.10;;;15.40;99.90;;;;;;4921128;29;20468;-59
2021/06/30 04:44:23;;;;;;;11.80;10.10;;;15.40;99.90;;;;;;4921657;29;20472;-59
2021/06/30 04:46:53;;;;;;;10.50;9.50;;;15.30;99.90;;;;;;4921757;29;20505;-59
2021/06/30 04:49:20;;;;;;;9.70;8.70;;;15.30;99.90;;;;;;4919031;29;20535;-59
2021/06/30 04:51:48;;;;;;;9.67;8.77;;;15.40;99.90;;;;;;4922050;29;20476;-58
2021/06/30 04:54:17;;;;;;;8.03;7.33;;;15.40;99.90;;;;;;4922305;29;20479;-59
2021/06/30 04:56:44;;;;;;;8.80;7.90;;;15.40;99.90;;;;;;4922184;29;20477;-59
2021/06/30 04:59:11;;;;;;;8.27;7.47;;;15.20;99.90;;;;;;4904520;29;20527;-59
2021/06/30 05:01:40;;;;;;;8.70;7.87;;;15.30;99.90;;;;;;4922170;29;20550;-59
2021/06/30 05:04:11;;;;;;;8.47;7.00;;;15.30;99.90;;;;;;4914030;29;20476;-59
2021/06/30 05:06:41;;;;;;;6.57;6.07;;;15.30;99.90;;;;;;4920711;29;20447;-59
2021/06/30 05:09:11;;;;;;;6.27;5.77;;;15.40;99.90;;;;;;4921161;29;20500;-59
2021/06/30 05:11:41;;;;;;;6.60;6.00;;;15.40;99.90;;;;;;4917524;29;20563;-59
2021/06/30 05:14:09;;;;;;;6.00;5.40;;;15.50;99.90;;;;;;4907969;29;20493;-59
2021/06/30 05:16:36;;;;;;;5.97;4.93;;;15.50;99.90;;;;;;4903464;29;20479;-59
2021/06/30 05:19:08;;;;;;;5.90;5.40;;;15.60;99.90;;;;;;4903130;29;20748;-59
2021/06/30 05:21:39;;;;;;;5.90;5.37;;;15.80;99.90;;;;;;4902565;29;20535;-59
2021/06/30 05:24:06;;;;;;;5.27;4.80;;;15.80;99.90;;;;;;4902294;29;20469;-59
2021/06/30 05:26:34;;;;;;;5.97;5.20;;;15.90;99.90;;;;;;4902272;29;20481;-59
2021/06/30 05:29:01;;;;;;;5.80;5.30;;;16.00;99.90;;;;;;4902500;29;20802;-59
2021/06/30 05:31:31;;;;;;;7.03;5.50;;;16.20;99.90;;;;;;4902788;29;20480;-59
2021/06/30 05:33:59;;;;;;;5.00;4.60;;;16.20;99.90;;;;;;4901698;29;20482;-59
2021/06/30 05:36:28;;;;;;;4.97;4.47;;;16.20;99.90;;;;;;4902847;29;20556;-59
2021/06/30 05:38:59;;;;;;;5.10;4.57;;;16.20;99.90;;;;;;4902325;29;20903;-59
2021/06/30 05:41:26;;;;;;;7.53;5.27;;;16.20;99.90;;;;;;4902461;29;20464;-59
2021/06/30 05:43:57;;;;;;;6.67;4.80;;;16.30;99.90;;;;;;4895896;29;20483;-59
2021/06/30 05:46:25;;;;;;;6.10;4.40;;;16.20;99.90;;;;;;4901282;29;20473;-59
2021/06/30 05:48:53;;;;;;;5.00;4.50;;;16.20;99.90;;;;;;4901567;29;20508;-58
2021/06/30 05:51:20;;;;;;;5.60;5.10;;;16.20;99.90;;;;;;4901810;29;20473;-58
2021/06/30 05:53:50;;;;;;;4.60;4.20;;;16.20;99.90;;;;;;4884449;29;20846;-59
2021/06/30 05:56:18;;;;;;;5.27;4.77;;;16.10;99.90;;;;;;4902691;29;20765;-59
2021/06/30 05:58:45;;;;;;;5.40;5.00;;;16.10;99.90;;;;;;4901863;29;20496;-59
2021/06/30 06:01:13;;;;;;;11.03;4.53;;;16.20;99.90;;;;;;4901812;29;20476;-59
2021/06/30 06:03:40;;;;;;;4.67;4.23;;;16.20;99.90;;;;;;4896477;29;20481;-59
2021/06/30 06:06:07;;;;;;;5.50;5.00;;;16.10;99.90;;;;;;4900269;29;20504;-59
2021/06/30 06:08:35;;;;;;;4.40;4.00;;;16.10;99.90;;;;;;4896022;29;20468;-58
2021/06/30 06:11:07;;;;;;;5.40;4.90;;;16.20;99.90;;;;;;4895761;29;20513;-59
2021/06/30 06:16:16;;;;;;;7.30;5.10;;;16.40;99.90;;;;;;4990096;23;20800;-59
2021/06/30 06:18:44;;;;;;;4.70;4.30;;;16.50;99.90;;;;;;4891595;29;20566;-58
2021/06/30 06:21:11;;;;;;;5.20;4.80;;;16.50;99.90;;;;;;4890795;29;20466;-58
2021/06/30 06:23:38;;;;;;;5.40;4.90;;;16.40;99.90;;;;;;4900971;29;20529;-60
2021/06/30 06:26:10;;;;;;;5.67;5.07;;;16.40;99.90;;;;;;4894215;29;20504;-60
2021/06/30 06:28:37;;;;;;;5.53;5.03;;;16.30;99.90;;;;;;4902263;29;20472;-58
2021/06/30 06:31:13;;;;;;;5.47;4.90;;;16.40;99.90;;;;;;4896369;29;20476;-57
2021/06/30 06:33:40;;;;;;;6.27;5.60;;;16.60;99.90;;;;;;4893625;29;20821;-59
2021/06/30 06:36:11;;;;;;;5.03;4.57;;;16.60;99.90;;;;;;4901947;29;20937;-57
2021/06/30 06:38:39;;;;;;;6.10;5.70;;;16.60;99.90;;;;;;4894100;29;20772;-55
2021/06/30 06:41:10;;;;;;;5.73;5.33;;;16.60;99.90;;;;;;4901238;29;20476;-56
2021/06/30 06:43:42;;;;;;;5.67;5.17;;;16.70;99.90;;;;;;4901486;29;20561;-57
2021/06/30 06:46:09;;;;;;;5.20;4.70;;;16.70;99.90;;;;;;4904864;29;20480;-57
2021/06/30 06:48:36;;;;;;;5.80;5.40;;;16.80;99.90;;;;;;4903419;29;20480;-57
2021/06/30 06:51:04;;;;;;;6.20;5.30;;;16.80;99.90;;;;;;4894321;29;20474;-58
2021/06/30 06:53:31;;;;;;;4.90;4.50;;;16.80;99.90;;;;;;4895635;29;20474;-58
2021/06/30 06:56:01;;;;;;;4.30;3.90;;;16.90;99.90;;;;;;4897701;29;20483;-59
2021/06/30 06:58:33;;;;;;;4.93;4.37;;;16.90;99.90;;;;;;4904953;29;20488;-59
2021/06/30 07:01:00;;;;;;;5.20;4.70;;;16.90;99.90;;;;;;4896596;29;20829;-56
2021/06/30 07:03:27;;;;;;;6.47;5.17;;;16.90;99.90;;;;;;4890020;29;20486;-59
2021/06/30 07:05:55;;;;;;;6.73;5.70;;;16.90;99.90;;;;;;4890155;29;20481;-59
2021/06/30 07:08:23;;;;;;;5.20;4.80;;;17.00;99.90;;;;;;4897320;29;20480;-57
2021/06/30 07:10:50;;;;;;;6.17;5.30;;;17.00;99.90;;;;;;4901331;29;21032;-55
2021/06/30 07:13:19;;;;;;;6.13;5.63;;;17.00;99.90;;;;;;4892303;29;20894;-56
2021/06/30 07:15:49;;;;;;;4.90;4.50;;;17.20;99.90;;;;;;4885783;29;20502;-59
2021/06/30 07:18:17;;;;;;;4.80;4.50;;;17.20;99.90;;;;;;4886245;29;20650;-55
2021/06/30 07:20:44;;;;;;;5.73;5.30;;;17.20;99.90;;;;;;4886653;29;20567;-58
2021/06/30 07:23:12;;;;;;;5.17;4.63;;;17.20;99.90;;;;;;4881124;29;20774;-57
2021/06/30 07:25:40;;;;;;;4.90;4.50;;;17.10;99.90;;;;;;4886143;29;20480;-56
2021/06/30 07:28:08;;;;;;;4.80;4.40;;;17.00;99.90;;;;;;4886105;29;20470;-54
2021/06/30 07:30:38;;;;;;;5.70;4.60;;;17.10;99.90;;;;;;4882321;29;20505;-54
2021/06/30 07:33:07;;;;;;;5.80;4.40;;;17.10;99.90;;;;;;4885604;29;20474;-60
2021/06/30 07:35:34;;;;;;;5.73;4.97;;;17.00;99.90;;;;;;4886053;29;20474;-52
2021/06/30 07:38:05;;;;;;;4.93;3.97;;;17.20;99.90;;;;;;4886256;29;20470;-52
2021/06/30 07:40:35;;;;;;;5.10;4.80;;;17.30;99.90;;;;;;4890227;29;20469;-52
2021/06/30 07:43:02;;;;;;;5.87;5.47;;;17.40;99.90;;;;;;4885486;29;20484;-56
2021/06/30 07:45:30;;;;;;;5.47;4.97;;;17.50;99.90;;;;;;4886129;29;20903;-51
2021/06/30 07:47:58;;;;;;;6.00;4.30;;;17.60;99.90;;;;;;4884917;29;20480;-58
2021/06/30 07:50:27;;;;;;;4.80;4.40;;;17.80;99.90;;;;;;4885627;29;20498;-57
2021/06/30 07:52:54;;;;;;;5.60;5.10;;;18.00;99.90;;;;;;4885436;29;20474;-52
2021/06/30 07:55:25;;;;;;;5.27;4.63;;;18.30;99.90;;;;;;4885307;29;20582;-52
2021/06/30 07:57:57;;;;;;;5.50;4.57;;;18.50;1.00;;;;;;4884466;29;20568;-57
2021/06/30 08:00:24;;;;;;;5.27;4.87;;;18.70;1.00;;;;;;4885389;29;20775;-55
2021/06/30 08:02:51;;;;;;;5.87;4.33;;;18.50;99.90;;;;;;4881664;29;20490;-59
2021/06/30 08:05:19;;;;;;;5.47;4.97;;;18.20;99.90;;;;;;4879757;29;21009;-59
2021/06/30 08:07:48;;;;;;;5.17;4.87;;;18.00;99.90;;;;;;4884449;29;20539;-59
2021/06/30 08:10:15;;;;;;;5.43;4.97;;;17.90;1.00;;;;;;4884317;29;20531;-58
2021/06/30 08:12:42;;;;;;;6.23;5.70;;;18.00;27.80;;;;;;4885430;29;20792;-58
2021/06/30 08:15:11;;;;;;;5.50;5.00;;;18.00;99.90;;;;;;4893197;29;20520;-57
2021/06/30 08:17:39;;;;;;;5.57;5.17;;;17.90;26.50;;;;;;4904389;29;20477;-58
2021/06/30 08:20:08;;;;;;;5.70;5.20;;;18.00;1.00;;;;;;4903855;29;20470;-54
2021/06/30 08:22:37;;;;;;;5.60;5.20;;;18.20;99.90;;;;;;4904260;29;20771;-57
2021/06/30 08:25:07;;;;;;;5.27;4.87;;;18.40;99.90;;;;;;4903941;29;20480;-50
2021/06/30 08:27:35;;;;;;;5.77;5.33;;;18.40;4.60;;;;;;4903428;29;20473;-54
2021/06/30 08:30:08;;;;;;;6.57;5.80;;;18.40;1.00;;;;;;4903394;29;20501;-52
2021/06/30 08:32:35;;;;;;;6.00;5.60;;;18.30;99.90;;;;;;4903876;29;20568;-56
2021/06/30 08:35:03;;;;;;;6.00;5.50;;;18.40;1.00;;;;;;4903589;29;20895;-55
2021/06/30 08:37:33;;;;;;;6.37;5.87;;;18.50;4.20;;;;;;4903822;29;20529;-51
2021/06/30 08:40:00;;;;;;;6.60;6.10;;;19.00;1.00;;;;;;4902779;29;20473;-52
2021/06/30 08:42:30;;;;;;;6.47;5.97;;;19.10;1.00;;;;;;4903551;29;20553;-53
2021/06/30 08:44:57;;;;;;;7.53;6.83;;;19.10;1.00;;;;;;4903400;29;20793;-53
2021/06/30 08:47:26;;;;;;;8.10;7.60;;;19.30;99.90;;;;;;4903554;29;20483;-52
2021/06/30 08:49:53;;;;;;;9.33;8.20;;;19.50;1.00;;;;;;4903005;29;20900;-57
2021/06/30 08:52:24;;;;;;;8.20;7.70;;;19.70;99.90;;;;;;4902966;29;20473;-59
2021/06/30 08:54:53;;;;;;;8.07;7.47;;;19.50;99.90;;;;;;4902994;29;20478;-53
2021/06/30 08:57:22;;;;;;;9.27;8.47;;;19.50;99.90;;;;;;4903543;29;20545;-56
2021/06/30 08:59:53;;;;;;;9.63;8.83;;;19.70;1.00;;;;;;4903053;29;20451;-55
2021/06/30 09:02:20;;;;;;;9.10;8.43;;;19.40;99.90;;;;;;4903543;29;20479;-57
2021/06/30 09:04:47;;;;;;;10.93;10.03;;;19.30;99.90;;;;;;5101117;23;20510;-60
2021/06/30 09:07:14;;;;;;;11.27;10.47;;;19.00;1.00;;;;;;4899730;29;20473;-59
2021/06/30 09:09:42;;;;;;;12.50;11.60;;;19.10;1.00;;;;;;4904130;29;20604;-59
2021/06/30 09:12:11;;;;;;;13.10;12.00;;;19.30;99.90;;;;;;4897256;29;20470;-59
2021/06/30 09:14:40;;;;;;;11.77;10.87;;;19.50;99.90;;;;;;4902737;29;20476;-54
2021/06/30 09:17:22;;;;;;;11.27;10.47;;;19.80;99.90;;;;;;4903212;29;20479;-59
2021/06/30 09:19:54;;;;;;;12.10;10.90;;;19.80;99.90;;;;;;4902990;29;20548;-58
2021/06/30 09:22:23;;;;;;;10.50;9.70;;;19.80;93.70;;;;;;4901865;29;20470;-54
2021/06/30 09:24:51;;;;;;;11.80;10.90;;;20.10;99.90;;;;;;4902152;29;20484;-58
2021/06/30 09:27:38;;;;;;;11.47;10.57;;;20.10;71.40;;;;;;4902381;29;20459;-57
2021/06/30 09:30:07;;;;;;;11.93;11.00;;;19.70;40.40;;;;;;4902157;29;20497;-58
2021/06/30 09:32:37;;;;;;;13.23;12.30;;;20.40;99.90;;;;;;4902011;29;20473;-54
2021/06/30 09:35:21;;;;;;;12.07;11.27;;;21.30;1.00;;;;;;4896335;29;20476;-57
2021/06/30 09:37:49;;;;;;;9.47;8.70;;;22.00;1.00;;;;;;4902504;29;20473;-57
2021/06/30 09:40:16;;;;;;;10.93;10.03;;;22.30;1.00;;;;;;4901405;29;20476;-48
2021/06/30 09:42:44;;;;;;;11.33;10.50;;;22.20;1.00;;;;;;4898309;29;20469;-52
2021/06/30 09:45:19;;;;;;;8.60;8.00;;;22.80;1.00;;;;;;4902096;29;20553;-51
2021/06/30 09:47:59;;;;;;;7.90;7.40;;;22.60;1.00;;;;;;4902491;29;20474;-54
2021/06/30 09:50:38;;;;;;;8.57;7.97;;;22.20;1.00;;;;;;4896927;29;20498;-53
2021/06/30 09:53:05;;;;;;;9.70;9.10;;;21.70;1.00;;;;;;4902613;29;20488;-53
2021/06/30 09:55:36;;;;;;;10.40;9.43;;;21.80;1.00;;;;;;4901897;29;20572;-51
2021/06/30 09:58:03;;;;;;;10.07;9.27;;;21.70;1.00;;;;;;4902347;29;20481;-52
2021/06/30 10:00:32;;;;;;;9.57;8.87;;;21.20;1.00;;;;;;4902535;29;20743;-49
2021/06/30 10:03:01;;;;;;;11.57;10.67;;;20.70;1.00;;;;;;4898173;29;20501;-52
2021/06/30 10:05:34;;;;;;;10.17;9.40;;;20.70;1.00;;;;;;4897756;29;20524;-45
2021/06/30 10:08:13;;;;;;;8.23;7.73;;;21.30;1.00;;;;;;4901561;29;20830;-45
2021/06/30 10:10:46;;;;;;;7.20;6.70;;;22.20;1.00;;;;;;4901368;29;20560;-49
2021/06/30 10:13:13;;;;;;;5.53;5.03;;;23.30;1.00;;;;;;4902105;29;20678;-52
2021/06/30 10:15:42;;;;;;;7.37;6.87;;;23.30;97.10;;;;;;4901862;29;20480;-50
2021/06/30 10:18:11;;;;;;;6.23;5.83;;;22.70;96.50;;;;;;4902197;29;20760;-47
2021/06/30 10:20:43;;;;;;;6.23;5.73;;;22.40;1.00;;;;;;4901646;29;20492;-53
2021/06/30 10:23:13;;;;;;;6.03;5.63;;;22.10;1.00;;;;;;4906794;29;20481;-52
2021/06/30 10:25:42;;;;;;;5.77;5.17;;;21.30;1.00;;;;;;4901731;29;20568;-45
2021/06/30 10:28:09;;;;;;;5.00;4.50;;;21.00;1.00;;;;;;4901364;29;20480;-50
2021/06/30 10:30:37;;;;;;;4.47;4.17;;;21.00;1.00;;;;;;4900930;29;20497;-48
2021/06/30 10:33:04;;;;;;;4.97;4.57;;;20.40;1.00;;;;;;4901512;29;20802;-50
2021/06/30 10:35:43;;;;;;;4.47;4.17;;;20.50;1.00;;;;;;4901738;29;20481;-51
2021/06/30 10:38:10;;;;;;;4.10;3.80;;;20.00;1.00;;;;;;4904061;29;20473;-49
2021/06/30 10:40:38;;;;;;;5.60;3.80;;;20.50;1.00;;;;;;4904881;29;20476;-44
2021/06/30 10:43:10;;;;;;;4.80;4.30;;;20.70;1.00;;;;;;4899912;29;20455;-46
2021/06/30 10:45:38;;;;;;;3.73;3.43;;;20.90;1.00;;;;;;4901592;29;20576;-44
2021/06/30 10:48:09;;;;;;;5.07;4.67;;;21.50;1.00;;;;;;4901547;29;20469;-48
2021/06/30 10:50:42;;;;;;;4.00;3.70;;;22.60;1.00;;;;;;4901878;29;20593;-53
2021/06/30 10:53:38;;;;;;;3.33;3.13;;;24.00;1.00;;;;;;4901020;29;20473;-54
2021/06/30 10:56:09;;;;;;;4.60;4.07;;;24.50;93.20;;;;;;4901649;29;20473;-48
2021/06/30 10:58:37;;;;;;;3.60;3.30;;;25.00;91.20;;;;;;4901151;29;20541;-47
2021/06/30 11:01:18;;;;;;;4.00;3.70;;;24.70;92.00;;;;;;4901195;29;20447;-44
2021/06/30 11:03:53;;;;;;;3.67;3.47;;;24.40;90.80;;;;;;4895111;29;20477;-46
2021/06/30 11:06:32;;;;;;;4.27;3.97;;;23.80;92.60;;;;;;4899656;29;20561;-49
2021/06/30 11:09:05;;;;;;;3.60;3.30;;;23.70;94.10;;;;;;4889415;29;20466;-51
2021/06/30 11:12:05;;;;;;;4.33;3.93;;;23.50;96.00;;;;;;4901067;29;20601;-48
2021/06/30 11:14:43;;;;;;;3.90;3.60;;;22.80;94.80;;;;;;4900861;29;20829;-47
2021/06/30 11:17:11;;;;;;;3.67;3.37;;;22.50;96.60;;;;;;4901314;29;20469;-52
2021/06/30 11:19:57;;;;;;;3.80;3.50;;;22.60;1.00;;;;;;4901176;29;20473;-51
2021/06/30 11:22:33;;;;;;;3.87;3.57;;;22.80;1.00;;;;;;4899787;29;20468;-45
2021/06/30 11:25:03;;;;;;;3.60;3.30;;;22.50;1.00;;;;;;4901518;29;20469;-52
2021/06/30 11:27:45;;;;;;;3.27;3.07;;;22.40;1.00;;;;;;4901495;29;20771;-48
2021/06/30 11:30:29;;;;;;;3.60;3.40;;;22.40;1.00;;;;;;4899550;29;20465;-51
2021/06/30 11:32:59;;;;;;;3.10;2.90;;;22.60;1.00;;;;;;4900598;29;20477;-46
2021/06/30 11:35:34;;;;;;;3.50;3.30;;;22.50;1.00;;;;;;4904811;29;20473;-46
2021/06/30 11:38:12;;;;;;;3.83;3.53;;;22.10;1.00;;;;;;4904779;29;20472;-47
2021/06/30 11:40:43;;;;;;;3.83;3.53;;;21.90;1.00;;;;;;4904641;29;20479;-47
2021/06/30 11:43:13;;;;;;;3.90;3.60;;;21.90;1.00;;;;;;4904400;29;20477;-47
2021/06/30 12:27:22;;;;;;;4.10;3.80;;;19.30;1.00;;;;;;5392593;23;20481;-50
2021/06/30 12:29:57;;;;;;;3.90;3.60;;;19.30;1.00;;;;;;4920631;29;20446;-49
2021/06/30 12:32:25;;;;;;;4.63;4.23;;;19.40;1.00;;;;;;4916195;29;20504;-49
2021/06/30 12:34:59;;;;;;;4.13;3.60;;;19.40;1.00;;;;;;4916422;29;20762;-50
2021/06/30 12:37:28;;;;;;;4.63;3.70;;;19.30;26.40;;;;;;4916804;29;20471;-47
2021/06/30 12:40:00;;;;;;;4.80;4.40;;;19.30;49.00;;;;;;4922190;29;20858;-48
2021/06/30 12:42:46;;;;;;;5.47;4.40;;;19.00;36.40;;;;;;4917443;29;20881;-46
2021/06/30 12:45:16;;;;;;;7.30;4.73;;;18.80;49.60;;;;;;4922170;29;20528;-49
2021/06/30 12:47:55;;;;;;;4.80;3.90;;;18.80;96.50;;;;;;4922408;29;20538;-46
2021/06/30 12:50:33;;;;;;;4.90;4.50;;;18.70;50.30;;;;;;4919278;29;20474;-47
2021/06/30 12:53:10;;;;;;;4.70;3.90;;;18.70;99.90;;;;;;4921532;29;20471;-49
2021/06/30 12:55:58;;;;;;;5.23;4.73;;;18.60;91.20;;;;;;4922075;29;20468;-49
2021/06/30 12:58:38;;;;;;;6.40;5.80;;;18.40;99.90;;;;;;4921470;29;20454;-48
2021/06/30 13:01:06;;;;;;;5.73;5.23;;;18.40;99.90;;;;;;4920399;29;20456;-49
2021/06/30 13:03:44;;;;;;;4.83;4.43;;;18.20;99.90;;;;;;4910545;29;20475;-50
2021/06/30 13:06:16;;;;;;;5.70;4.97;;;18.40;99.90;;;;;;4920042;29;20906;-49
2021/06/30 13:45:21;;;;;;;5.10;4.70;;;19.00;31.40;;;;;;5159317;23;20501;-52
2021/06/30 13:47:52;;;;;;;5.67;5.17;;;18.90;70.40;;;;;;4903413;29;20476;-54
2021/06/30 13:50:19;;;;;;;6.60;6.00;;;18.90;84.10;;;;;;4902379;29;20474;-52
2021/06/30 13:52:46;;;;;;;5.77;5.27;;;18.80;83.20;;;;;;4902591;29;20513;-48
2021/06/30 13:55:14;;;;;;;7.87;7.20;;;18.60;95.10;;;;;;4901429;29;20477;-46
2021/06/30 13:57:41;;;;;;;7.10;6.50;;;18.60;99.90;;;;;;4901920;29;20481;-49
2021/06/30 14:00:11;;;;;;;7.07;6.07;;;18.50;99.90;;;;;;4894672;29;20474;-51
2021/06/30 14:02:39;;;;;;;7.13;6.53;;;18.50;99.90;;;;;;4899657;29;20476;-49
2021/06/30 14:05:07;;;;;;;6.33;5.73;;;18.70;99.90;;;;;;4895913;29;20545;-53
2021/06/30 14:07:34;;;;;;;7.07;5.93;;;18.80;99.90;;;;;;4914393;29;20477;-48
2021/06/30 14:10:06;;;;;;;5.90;5.40;;;18.60;99.90;;;;;;4919931;29;20474;-46
2021/06/30 14:12:33;;;;;;;6.63;6.07;;;18.60;99.90;;;;;;4919812;29;20511;-51
2021/06/30 14:15:00;;;;;;;6.97;6.37;;;18.70;99.90;;;;;;4920447;29;20447;-45
2021/06/30 14:17:27;;;;;;;5.20;4.80;;;18.70;99.90;;;;;;4920076;29;20483;-51
2021/06/30 14:20:02;;;;;;;6.10;5.50;;;18.70;99.90;;;;;;4920668;29;20552;-49
2021/06/30 14:22:32;;;;;;;6.43;5.93;;;18.90;99.90;;;;;;4920043;29;20467;-49
2021/06/30 14:24:59;;;;;;;5.80;5.20;;;19.10;99.90;;;;;;4920780;29;20482;-49
2021/06/30 14:27:27;;;;;;;5.60;5.10;;;19.00;30.60;;;;;;4920395;29;20473;-44